Time;durP1;ratioP1;P1;durP2;ratioP2;P2;SDS_P1;SDS_P2;PMS_P1;PMS_P2;Temp;Humidity;BMP_temperature;BMP_pressure;BME280_temperature;BME280_humidity;BME280_pressure;Samples;Min_cycle;Max_cycle;Signal;HPM_P1;HPM_P2
2022/10/07 00:01:14;;;;;;;6.23;2.90;;;;;;;5.84;100.00;101385.72;4983004;28;20326;-65
2022/10/07 00:03:40;;;;;;;6.73;2.37;;;;;;;5.85;100.00;101381.50;5000760;28;20192;-63
2022/10/07 00:06:12;;;;;;;7.30;3.20;;;;;;;5.84;100.00;101382.34;4992844;28;20187;-63
2022/10/07 00:08:39;;;;;;;9.27;2.67;;;;;;;5.67;100.00;101375.78;4988312;28;20192;-64
2022/10/07 00:11:16;;;;;;;5.87;2.30;;;;;;;5.59;100.00;101368.19;4980372;28;20235;-65
2022/10/07 00:13:43;;;;;;;8.83;2.57;;;;;;;5.70;100.00;101380.00;4985034;28;20189;-65
2022/10/07 00:16:16;;;;;;;6.00;2.30;;;;;;;5.76;100.00;101367.16;4990184;28;20196;-63
2022/10/07 00:18:42;;;;;;;6.30;2.53;;;;;;;5.71;100.00;101359.53;4991257;28;20238;-62
2022/10/07 00:21:10;;;;;;;10.00;2.77;;;;;;;5.71;100.00;101367.19;4992462;28;20722;-62
2022/10/07 00:23:37;;;;;;;6.70;2.40;;;;;;;5.70;100.00;101362.13;4990963;28;20188;-62
2022/10/07 00:26:06;;;;;;;5.53;2.50;;;;;;;5.63;100.00;101358.78;4992593;28;20326;-61
2022/10/07 00:28:32;;;;;;;5.70;2.87;;;;;;;5.65;100.00;101360.47;4992926;28;20278;-62
2022/10/07 00:31:19;;;;;;;6.37;2.33;;;;;;;5.57;100.00;101359.75;4985052;28;20232;-62
2022/10/07 00:33:45;;;;;;;7.40;2.60;;;;;;;5.68;100.00;101349.38;4978455;28;20208;-64
2022/10/07 00:36:23;;;;;;;6.13;3.57;;;;;;;5.49;100.00;101347.09;4994099;28;20756;-62
2022/10/07 00:38:50;;;;;;;6.10;2.47;;;;;;;5.53;100.00;101350.41;4984406;28;20606;-62
2022/10/07 00:41:22;;;;;;;6.50;2.70;;;;;;;5.52;100.00;101346.19;4981962;28;20251;-62
2022/10/07 00:43:48;;;;;;;6.80;2.50;;;;;;;5.58;100.00;101343.56;4992431;28;20211;-62
2022/10/07 00:46:29;;;;;;;10.80;2.90;;;;;;;5.54;100.00;101341.91;4991485;28;20635;-62
2022/10/07 00:49:01;;;;;;;5.77;2.47;;;;;;;5.66;100.00;101341.72;4992640;28;20225;-64
2022/10/07 00:51:27;;;;;;;10.73;2.47;;;;;;;5.64;100.00;101338.38;4983529;28;20846;-62
2022/10/07 00:53:55;;;;;;;7.10;2.97;;;;;;;5.68;100.00;101338.31;4975303;28;20192;-62
2022/10/07 00:56:24;;;;;;;9.67;3.00;;;;;;;5.48;100.00;101334.31;4990752;28;20215;-63
2022/10/07 00:58:50;;;;;;;6.47;2.53;;;;;;;5.52;100.00;101332.56;4992284;28;20184;-62
2022/10/07 01:01:17;;;;;;;6.40;2.77;;;;;;;5.60;100.00;101335.88;4982128;28;20290;-62
2022/10/07 01:03:44;;;;;;;4.93;2.97;;;;;;;5.51;100.00;101329.19;4986255;28;20183;-63
2022/10/07 01:06:09;;;;;;;7.47;2.80;;;;;;;5.56;100.00;101322.31;4991026;28;20179;-64
2022/10/07 01:08:35;;;;;;;8.90;2.67;;;;;;;5.57;100.00;101324.00;5000160;28;20201;-65
2022/10/07 01:11:12;;;;;;;5.63;2.90;;;;;;;5.50;100.00;101318.13;4991007;28;20231;-62
2022/10/07 01:13:55;;;;;;;6.40;2.57;;;;;;;5.40;100.00;101319.13;4982809;28;20273;-62
2022/10/07 01:16:44;;;;;;;5.43;2.27;;;;;;;5.26;100.00;101308.25;4991043;28;20207;-62
2022/10/07 01:19:46;;;;;;;5.53;2.80;;;;;;;5.36;100.00;101308.97;4979747;28;20184;-63
2022/10/07 01:22:28;;;;;;;9.37;2.80;;;;;;;5.25;100.00;101307.41;4975561;28;20231;-62
2022/10/07 01:24:56;;;;;;;3.97;2.30;;;;;;;5.28;100.00;101301.41;4991121;28;20191;-62
2022/10/07 01:27:24;;;;;;;7.77;2.67;;;;;;;5.21;100.00;101307.47;4991503;28;20269;-62
2022/10/07 01:30:00;;;;;;;6.10;2.20;;;;;;;5.22;100.00;101309.16;4991078;28;20184;-66
2022/10/07 01:32:36;;;;;;;3.90;2.27;;;;;;;5.19;100.00;101296.47;4964841;28;20230;-63
2022/10/07 01:35:07;;;;;;;5.53;2.47;;;;;;;5.09;100.00;101296.56;4993241;28;20210;-62
2022/10/07 01:37:39;;;;;;;9.20;2.70;;;;;;;4.88;100.00;101284.91;4991111;28;20234;-63
2022/10/07 01:40:11;;;;;;;7.07;2.53;;;;;;;4.78;100.00;101291.81;4981741;28;20250;-62
2022/10/07 01:42:38;;;;;;;5.40;2.03;;;;;;;4.90;100.00;101295.94;5003951;28;20222;-63
2022/10/07 01:45:05;;;;;;;9.23;2.30;;;;;;;4.83;100.00;101290.06;4992193;28;20297;-63
2022/10/07 01:47:32;;;;;;;10.97;2.53;;;;;;;4.98;100.00;101286.47;4991006;28;20647;-63
2022/10/07 01:49:57;;;;;;;4.63;2.60;;;;;;;5.06;100.00;101280.44;4986750;28;20270;-65
2022/10/07 01:52:23;;;;;;;9.90;2.97;;;;;;;4.87;100.00;101279.84;4976297;28;20644;-62
2022/10/07 01:55:10;;;;;;;5.90;2.47;;;;;;;4.99;100.00;101274.59;4990087;28;20190;-66
2022/10/07 01:57:43;;;;;;;7.67;2.63;;;;;;;5.08;100.00;101277.00;4982690;28;20223;-66
2022/10/07 02:00:11;;;;;;;6.63;2.47;;;;;;;4.91;100.00;101269.59;4981845;28;20187;-62
2022/10/07 02:02:49;;;;;;;7.40;2.50;;;;;;;4.90;100.00;101269.59;4986534;28;20180;-63
2022/10/07 02:05:27;;;;;;;12.80;2.90;;;;;;;4.95;100.00;101265.28;4988289;28;20925;-63
2022/10/07 02:08:08;;;;;;;11.13;2.80;;;;;;;4.96;100.00;101259.31;4988504;28;20635;-62
2022/10/07 02:10:43;;;;;;;11.50;2.83;;;;;;;4.90;100.00;101259.38;4982249;28;20234;-62
2022/10/07 02:13:15;;;;;;;5.30;2.57;;;;;;;4.97;100.00;101256.78;4996604;28;20554;-62
2022/10/07 02:16:06;;;;;;;9.67;2.70;;;;;;;5.03;100.00;101247.34;4986500;28;20469;-66
2022/10/07 02:18:35;;;;;;;8.77;2.53;;;;;;;5.02;100.00;101249.03;4986190;28;20658;-63
2022/10/07 02:21:05;;;;;;;5.27;2.90;;;;;;;5.05;100.00;101245.59;4971973;28;20288;-62
2022/10/07 02:23:33;;;;;;;6.87;2.50;;;;;;;5.00;100.00;101255.88;4977540;28;20238;-63
2022/10/07 02:26:01;;;;;;;10.63;2.60;;;;;;;4.92;100.00;101248.31;4990395;28;20183;-62
2022/10/07 02:28:28;;;;;;;12.90;2.77;;;;;;;4.77;100.00;101243.41;4991604;28;20230;-63
2022/10/07 02:30:59;;;;;;;7.60;2.87;;;;;;;4.79;100.00;101239.97;4981065;28;20214;-63
2022/10/07 02:33:27;;;;;;;7.60;2.70;;;;;;;4.91;100.00;101236.44;4991600;28;20187;-65
2022/10/07 02:35:57;;;;;;;9.03;2.97;;;;;;;4.94;100.00;101244.03;4990490;28;20198;-63
2022/10/07 02:38:25;;;;;;;6.10;2.53;;;;;;;4.89;100.00;101238.16;4990889;28;20179;-63
2022/10/07 02:40:57;;;;;;;11.30;3.33;;;;;;;5.02;100.00;101238.84;4986730;28;20230;-65
2022/10/07 02:43:38;;;;;;;7.63;3.00;;;;;;;4.95;100.00;101232.97;4989854;28;20180;-62
2022/10/07 02:46:16;;;;;;;8.13;2.67;;;;;;;5.03;100.00;101232.03;4992515;28;20278;-63
2022/10/07 02:49:04;;;;;;;5.83;2.70;;;;;;;5.10;100.00;101231.09;4994252;28;20226;-63
2022/10/07 02:51:40;;;;;;;10.53;2.60;;;;;;;4.92;100.00;101227.06;4965246;28;20242;-65
2022/10/07 02:54:06;;;;;;;7.10;2.70;;;;;;;4.90;100.00;101228.78;4985204;28;20670;-64
2022/10/07 02:56:36;;;;;;;8.07;2.57;;;;;;;4.71;100.00;101220.53;4994452;28;20206;-61
2022/10/07 02:59:04;;;;;;;6.83;2.90;;;;;;;4.73;100.00;101221.38;4982007;28;20175;-61
2022/10/07 03:01:37;;;;;;;7.90;2.80;;;;;;;4.68;100.00;101212.06;4974197;28;20302;-64
2022/10/07 03:04:04;;;;;;;8.20;3.07;;;;;;;4.63;100.00;101211.28;4986883;28;20181;-62
2022/10/07 03:06:30;;;;;;;6.17;2.60;;;;;;;4.65;100.00;101213.81;4973344;28;20184;-62
2022/10/07 03:08:56;;;;;;;7.80;2.97;;;;;;;4.75;100.00;101223.03;4975960;28;20203;-65
2022/10/07 03:11:23;;;;;;;5.73;3.00;;;;;;;4.83;100.00;101211.03;4982988;28;20224;-62
2022/10/07 03:13:48;;;;;;;8.57;3.13;;;;;;;4.84;100.00;101214.44;4973723;28;20188;-64
2022/10/07 03:16:13;;;;;;;4.73;2.70;;;;;;;4.94;100.00;101222.81;4973251;28;20238;-62
2022/10/07 03:18:40;;;;;;;8.93;3.30;;;;;;;4.99;100.00;101218.50;4995076;28;20669;-61
2022/10/07 03:21:06;;;;;;;10.10;3.53;;;;;;;4.98;100.00;101224.44;4987012;28;20218;-63
2022/10/07 03:23:32;;;;;;;7.17;2.73;;;;;;;4.92;100.00;101225.34;5001961;28;20191;-63
2022/10/07 03:25:58;;;;;;;8.77;3.30;;;;;;;4.89;100.00;101214.34;4995217;28;20179;-78
2022/10/07 03:28:27;;;;;;;9.77;3.53;;;;;;;4.87;100.00;101213.56;4993924;28;20209;-62
2022/10/07 03:30:54;;;;;;;8.37;2.83;;;;;;;4.87;100.00;101214.38;4959860;28;20219;-62
2022/10/07 03:33:24;;;;;;;8.17;3.10;;;;;;;4.84;100.00;101207.63;4983487;28;20194;-62
2022/10/07 03:35:49;;;;;;;5.10;3.13;;;;;;;4.71;100.00;101203.53;4994463;28;20207;-62
2022/10/07 03:38:15;;;;;;;8.10;2.73;;;;;;;4.72;100.00;101210.31;4994609;28;20673;-64
2022/10/07 03:40:43;;;;;;;7.33;3.50;;;;;;;4.80;100.00;101197.47;4989289;28;20688;-64
2022/10/07 03:43:08;;;;;;;10.73;3.60;;;;;;;4.91;100.00;101199.88;4992632;28;20183;-62
2022/10/07 03:45:36;;;;;;;10.30;3.47;;;;;;;4.77;100.00;101198.34;4992859;28;20564;-67
2022/10/07 03:48:02;;;;;;;5.77;2.83;;;;;;;4.75;100.00;101202.66;4993807;28;20182;-63
2022/10/07 03:50:27;;;;;;;8.73;2.80;;;;;;;4.58;100.00;101202.03;4987006;28;20234;-62
2022/10/07 03:52:52;;;;;;;5.80;3.17;;;;;;;4.58;100.00;101191.81;4990192;28;20172;-63
2022/10/07 03:55:18;;;;;;;8.80;2.60;;;;;;;4.63;100.00;101196.00;4993455;28;20638;-62
2022/10/07 03:57:49;;;;;;;9.63;3.27;;;;;;;4.63;100.00;101187.50;4994518;28;20205;-62
2022/10/07 04:00:16;;;;;;;6.10;3.20;;;;;;;4.49;100.00;101192.75;5000830;28;20636;-62
2022/10/07 04:02:42;;;;;;;8.63;3.17;;;;;;;4.64;100.00;101199.38;4993376;28;20194;-62
2022/10/07 04:05:07;;;;;;;9.07;3.00;;;;;;;4.61;100.00;101191.78;4994321;28;20662;-65
2022/10/07 04:07:32;;;;;;;6.20;3.00;;;;;;;4.63;100.00;101195.16;4994275;28;20655;-62
2022/10/07 04:09:58;;;;;;;9.93;2.97;;;;;;;4.60;100.00;101184.97;4993813;28;20184;-66
2022/10/07 04:12:23;;;;;;;8.67;3.33;;;;;;;4.55;100.00;101182.47;4984309;28;20714;-63
2022/10/07 04:14:49;;;;;;;7.70;2.87;;;;;;;4.57;100.00;101180.78;4994066;28;20180;-63
2022/10/07 04:17:17;;;;;;;6.47;2.70;;;;;;;4.48;100.00;101175.81;4994059;28;20297;-62
2022/10/07 04:19:42;;;;;;;9.57;3.13;;;;;;;4.35;100.00;101178.50;4993110;28;20179;-62
2022/10/07 04:22:07;;;;;;;7.80;2.90;;;;;;;4.44;100.00;101175.00;4999628;28;20689;-62
2022/10/07 04:24:32;;;;;;;7.60;2.97;;;;;;;4.37;100.00;101175.91;4992750;28;20176;-62
2022/10/07 04:26:58;;;;;;;11.00;3.40;;;;;;;4.39;100.00;101181.00;4993801;28;20539;-62
2022/10/07 04:29:23;;;;;;;7.33;2.70;;;;;;;4.30;100.00;101176.84;4992939;28;20180;-62
2022/10/07 04:31:48;;;;;;;11.47;2.90;;;;;;;4.30;100.00;101177.69;4997588;28;20250;-62
2022/10/07 04:34:14;;;;;;;6.70;2.67;;;;;;;4.30;100.00;101167.47;4995366;28;20255;-62
2022/10/07 04:36:39;;;;;;;7.67;2.97;;;;;;;4.27;100.00;101170.09;4993955;28;20215;-62
2022/10/07 04:39:04;;;;;;;6.43;2.40;;;;;;;4.26;100.00;101160.75;4992543;28;20179;-62
2022/10/07 04:41:30;;;;;;;6.03;2.77;;;;;;;4.20;100.00;101163.38;4995052;28;20247;-62
2022/10/07 04:43:55;;;;;;;4.47;2.60;;;;;;;4.28;100.00;101159.03;4996730;28;20187;-62
2022/10/07 04:46:20;;;;;;;8.57;2.80;;;;;;;4.23;100.00;101165.03;4992415;28;21777;-65
2022/10/07 04:48:45;;;;;;;5.40;2.37;;;;;;;4.28;100.00;101160.72;4993440;28;20231;-65
2022/10/07 04:51:11;;;;;;;5.50;1.93;;;;;;;4.19;100.00;101159.13;4985801;28;20225;-63
2022/10/07 04:53:38;;;;;;;8.53;2.77;;;;;;;4.32;100.00;101158.13;4991808;28;20306;-64
2022/10/07 04:56:04;;;;;;;9.07;2.73;;;;;;;4.30;100.00;101159.00;4991466;28;20206;-62
2022/10/07 04:58:31;;;;;;;9.80;2.80;;;;;;;4.25;100.00;101163.31;4999955;28;20191;-62
2022/10/07 05:00:58;;;;;;;13.03;3.70;;;;;;;4.24;100.00;101157.38;4984509;28;20234;-62
2022/10/07 05:03:26;;;;;;;9.20;2.43;;;;;;;4.19;100.00;101159.97;4991570;28;20245;-61
2022/10/07 05:05:54;;;;;;;8.40;3.43;;;;;;;4.15;100.00;101155.75;4992233;28;20187;-61
2022/10/07 05:08:23;;;;;;;7.70;2.80;;;;;;;4.07;100.00;101160.13;4991681;28;20175;-61
2022/10/07 05:10:53;;;;;;;5.93;2.80;;;;;;;4.10;100.00;101149.06;4989163;28;20242;-62
2022/10/07 05:13:18;;;;;;;8.00;2.60;;;;;;;4.32;100.00;101149.66;5002497;28;20196;-61
2022/10/07 05:15:51;;;;;;;8.23;3.03;;;;;;;4.27;100.00;101147.16;4993023;28;20213;-62
2022/10/07 05:18:18;;;;;;;11.27;3.50;;;;;;;4.30;100.00;101148.81;5008854;28;20191;-62
2022/10/07 05:20:46;;;;;;;11.07;3.30;;;;;;;4.21;100.00;101144.69;4983994;28;20840;-62
2022/10/07 05:23:12;;;;;;;13.40;3.13;;;;;;;4.15;100.00;101142.19;4991631;28;20659;-62
2022/10/07 05:25:38;;;;;;;12.93;2.83;;;;;;;4.21;100.00;101142.13;4989852;28;20278;-61
2022/10/07 05:28:03;;;;;;;8.03;3.13;;;;;;;4.15;100.00;101140.47;4992885;28;20599;-62
2022/10/07 05:30:28;;;;;;;7.37;3.20;;;;;;;4.20;100.00;101145.53;4986379;28;20231;-62
2022/10/07 05:32:54;;;;;;;9.50;3.13;;;;;;;4.22;100.00;101142.97;5003855;28;20190;-62
2022/10/07 05:35:20;;;;;;;10.40;3.00;;;;;;;4.30;100.00;101136.09;4991241;28;20183;-62
2022/10/07 05:37:46;;;;;;;14.57;3.70;;;;;;;4.35;100.00;101139.41;4991542;28;20219;-64
2022/10/07 05:40:11;;;;;;;14.00;3.27;;;;;;;4.31;100.00;101136.06;4982085;28;20660;-62
2022/10/07 05:42:37;;;;;;;4.80;2.53;;;;;;;4.32;100.00;101131.81;4990855;28;20651;-62
2022/10/07 05:45:04;;;;;;;9.83;3.30;;;;;;;4.34;100.00;101127.53;4990913;28;20187;-62
2022/10/07 05:47:32;;;;;;;9.03;3.20;;;;;;;4.37;100.00;101132.59;4991102;28;20262;-62
2022/10/07 05:49:57;;;;;;;10.27;3.43;;;;;;;4.39;100.00;101130.03;4990115;28;20223;-70
2022/10/07 05:52:23;;;;;;;9.53;3.37;;;;;;;4.42;100.00;101124.91;4997402;28;20229;-63
2022/10/07 05:54:48;;;;;;;8.43;3.20;;;;;;;4.41;100.00;101128.31;4991231;28;20194;-63
2022/10/07 05:57:13;;;;;;;9.30;3.40;;;;;;;4.37;100.00;101119.88;4992197;28;20241;-63
2022/10/07 05:59:41;;;;;;;8.77;3.10;;;;;;;4.31;100.00;101120.78;4981180;28;20678;-63
2022/10/07 06:02:06;;;;;;;9.90;3.50;;;;;;;4.42;100.00;101118.09;4983244;28;20292;-63
2022/10/07 06:04:31;;;;;;;13.90;4.17;;;;;;;4.43;100.00;101119.78;4991045;28;20191;-63
2022/10/07 06:06:57;;;;;;;8.27;3.60;;;;;;;4.47;100.00;101118.06;4992851;28;20194;-65
2022/10/07 06:14:52;;;;;;;10.03;3.93;;;;;;;4.65;100.00;101114.41;4995464;28;20283;-63
2022/10/07 06:17:18;;;;;;;10.23;3.53;;;;;;;4.64;100.00;101120.34;4999189;28;20210;-64
2022/10/07 06:19:43;;;;;;;9.17;3.90;;;;;;;4.78;100.00;101115.94;4998231;28;20192;-63
2022/10/07 06:22:09;;;;;;;11.00;3.70;;;;;;;4.90;100.00;101117.47;5003339;28;20214;-63
2022/10/07 06:24:34;;;;;;;10.03;3.53;;;;;;;5.01;100.00;101112.19;4996149;28;20197;-63
2022/10/07 06:26:59;;;;;;;12.07;3.93;;;;;;;5.23;100.00;101111.88;4999135;28;20232;-63
2022/10/07 06:29:25;;;;;;;11.77;3.50;;;;;;;5.66;100.00;101118.81;4998519;28;20183;-65
2022/10/07 06:31:50;;;;;;;11.07;3.50;;;;;;;6.18;100.00;101108.47;4996292;28;20227;-63
2022/10/07 06:34:16;;;;;;;7.90;2.83;;;;;;;7.25;100.00;101109.53;4999065;28;20191;-63
2022/10/07 06:36:42;;;;;;;10.40;3.17;;;;;;;8.97;100.00;101108.22;4996990;28;20215;-67
2022/10/07 06:39:07;;;;;;;6.67;2.70;;;;;;;10.44;100.00;101092.03;4999369;28;20595;-64
2022/10/07 06:41:33;;;;;;;5.30;2.53;;;;;;;11.23;100.00;101081.22;4999502;28;20256;-63
2022/10/07 06:43:59;;;;;;;5.20;2.77;;;;;;;11.77;100.00;101084.91;4995771;28;20198;-65
2022/10/07 06:46:25;;;;;;;10.10;2.57;;;;;;;12.18;100.00;101089.16;4998320;28;20554;-64
2022/10/07 06:48:51;;;;;;;4.50;2.73;;;;;;;12.89;99.11;101085.84;4986533;28;20258;-67
2022/10/07 06:51:18;;;;;;;7.33;2.77;;;;;;;13.71;91.85;101080.97;4985260;28;20334;-63
2022/10/07 06:53:45;;;;;;;10.43;2.70;;;;;;;14.43;80.98;101083.19;4995896;28;20194;-65
2022/10/07 06:56:12;;;;;;;7.30;3.03;;;;;;;14.39;77.78;101086.84;4994151;28;20203;-63
2022/10/07 06:58:38;;;;;;;6.53;2.90;;;;;;;14.22;75.68;101085.19;4989973;28;20187;-63
2022/10/07 07:01:04;;;;;;;4.40;2.50;;;;;;;12.96;84.60;101088.13;4975466;28;20230;-64
2022/10/07 07:03:29;;;;;;;5.10;2.40;;;;;;;13.00;87.15;101085.31;4997900;28;20218;-63
2022/10/07 07:05:55;;;;;;;10.23;2.97;;;;;;;13.44;86.83;101091.78;4987664;28;20555;-63
2022/10/07 07:08:23;;;;;;;6.67;2.70;;;;;;;13.36;84.08;101086.16;5009999;28;20523;-66
2022/10/07 07:10:48;;;;;;;5.50;2.27;;;;;;;12.00;91.98;101090.00;4989206;28;20308;-62
2022/10/07 07:13:14;;;;;;;8.80;2.87;;;;;;;13.56;89.24;101087.75;4998407;28;20643;-62
2022/10/07 07:15:40;;;;;;;5.50;2.80;;;;;;;14.17;78.66;101086.25;4972444;28;20554;-63
2022/10/07 07:18:08;;;;;;;6.10;2.77;;;;;;;14.77;75.53;101073.56;4978390;28;20245;-64
2022/10/07 07:20:36;;;;;;;9.80;3.03;;;;;;;15.11;71.60;101077.63;4983714;28;20233;-64
2022/10/07 07:23:03;;;;;;;6.57;2.90;;;;;;;14.74;73.46;101081.50;4985754;28;20184;-64
2022/10/07 07:25:28;;;;;;;7.73;2.80;;;;;;;14.41;77.57;101077.25;4990392;28;20250;-62
2022/10/07 07:27:55;;;;;;;6.70;2.60;;;;;;;13.13;85.81;101071.81;4968965;28;20192;-62
2022/10/07 07:30:22;;;;;;;6.00;2.63;;;;;;;12.39;94.88;101078.75;4942356;28;20185;-62
2022/10/07 07:32:49;;;;;;;5.97;2.80;;;;;;;11.10;100.00;101083.44;4981365;28;20293;-63
2022/10/07 07:35:14;;;;;;;7.20;3.10;;;;;;;10.71;100.00;101079.03;4981173;28;20208;-62
2022/10/07 07:37:40;;;;;;;10.03;2.97;;;;;;;10.78;100.00;101078.72;4984227;28;20762;-63
2022/10/07 07:40:06;;;;;;;7.73;2.80;;;;;;;11.01;100.00;101076.09;4983981;28;20192;-62
2022/10/07 07:42:32;;;;;;;4.23;2.33;;;;;;;10.71;100.00;101074.69;4986555;28;20710;-64
2022/10/07 07:44:58;;;;;;;12.03;2.70;;;;;;;10.79;100.00;101079.53;4981167;28;20195;-63
2022/10/07 07:47:24;;;;;;;6.50;2.80;;;;;;;10.57;100.00;101069.28;4991680;28;20179;-63
2022/10/07 07:49:50;;;;;;;7.77;2.87;;;;;;;10.63;100.00;101069.84;4990061;28;20230;-62
2022/10/07 07:52:15;;;;;;;5.80;2.30;;;;;;;10.95;100.00;101067.75;4982145;28;20288;-62
2022/10/07 07:54:40;;;;;;;12.73;2.77;;;;;;;11.26;100.00;101066.47;4994490;28;20266;-63
2022/10/07 07:57:07;;;;;;;6.77;2.90;;;;;;;11.68;100.00;101061.28;4982848;28;20213;-63
2022/10/07 07:59:33;;;;;;;6.43;2.40;;;;;;;11.68;100.00;101062.09;4978905;28;20218;-63
2022/10/07 08:01:59;;;;;;;7.17;2.60;;;;;;;11.83;100.00;101065.75;4986120;28;20726;-63
2022/10/07 08:04:24;;;;;;;14.77;3.27;;;;;;;11.77;100.00;101064.28;4987763;28;20183;-63
2022/10/07 08:06:50;;;;;;;5.80;2.50;;;;;;;11.61;100.00;101058.16;4992408;28;20709;-63
2022/10/07 08:09:15;;;;;;;8.80;3.20;;;;;;;11.43;100.00;101055.44;4994362;28;20195;-62
2022/10/07 08:11:44;;;;;;;10.47;3.23;;;;;;;11.23;100.00;101051.13;4983805;28;20230;-62
2022/10/07 08:14:14;;;;;;;13.53;4.77;;;;;;;11.25;100.00;101046.78;4983877;28;20534;-62
2022/10/07 08:16:42;;;;;;;15.57;7.87;;;;;;;11.24;100.00;101050.25;5003602;28;20255;-64
2022/10/07 08:19:08;;;;;;;7.97;3.53;;;;;;;11.37;100.00;101045.41;4992254;28;20179;-62
2022/10/07 08:21:34;;;;;;;9.87;3.43;;;;;;;11.26;100.00;101053.59;4993962;28;20269;-63
2022/10/07 08:24:01;;;;;;;14.30;3.90;;;;;;;11.17;100.00;101043.66;4992272;28;20203;-61
2022/10/07 08:26:29;;;;;;;7.87;3.37;;;;;;;11.13;100.00;101042.97;4992765;28;20199;-63
2022/10/07 08:28:56;;;;;;;11.47;3.20;;;;;;;10.93;100.00;101038.63;4988204;28;20238;-62
2022/10/07 08:31:26;;;;;;;8.43;2.93;;;;;;;11.27;100.00;101041.53;4984257;28;20324;-62
2022/10/07 08:33:52;;;;;;;16.03;3.60;;;;;;;11.31;100.00;101043.06;4989127;28;20268;-63
2022/10/07 08:36:20;;;;;;;11.90;2.80;;;;;;;11.55;100.00;101033.47;4991258;28;20215;-63
2022/10/07 08:38:47;;;;;;;12.33;3.20;;;;;;;11.37;100.00;101036.84;4992090;28;20183;-64
2022/10/07 08:41:30;;;;;;;11.23;3.70;;;;;;;11.59;100.00;101036.75;4985472;28;20227;-64
2022/10/07 08:43:57;;;;;;;7.30;2.70;;;;;;;11.29;100.00;101040.56;4989517;28;20623;-62
2022/10/07 08:46:30;;;;;;;13.23;3.73;;;;;;;11.21;100.00;101041.81;4992289;28;20600;-62
2022/10/07 08:49:15;;;;;;;12.10;2.87;;;;;;;11.61;100.00;101035.78;4994045;28;20253;-63
2022/10/07 08:55:08;;;;;;;5.60;2.47;;;;;;;12.75;97.66;101021.97;4990932;28;20321;-62
2022/10/07 08:57:37;;;;;;;4.93;2.50;;;;;;;14.47;86.21;101019.97;4990406;28;20222;-63
2022/10/07 09:00:05;;;;;;;8.97;2.70;;;;;;;17.22;63.67;101015.25;4988006;28;20191;-63
2022/10/07 09:02:43;;;;;;;6.13;2.60;;;;;;;19.54;50.91;101006.31;4991944;28;20187;-66
2022/10/07 09:05:31;;;;;;;7.93;2.87;;;;;;;21.42;43.70;101018.91;4991413;28;20184;-62
2022/10/07 09:07:59;;;;;;;6.10;2.00;;;;;;;22.49;40.57;101006.97;4992283;28;20179;-75
2022/10/07 09:10:41;;;;;;;7.93;2.90;;;;;;;23.23;37.35;101012.47;4984880;28;20241;-63
2022/10/07 09:13:18;;;;;;;9.10;2.67;;;;;;;22.55;37.76;101018.69;4989275;28;20655;-65
2022/10/07 09:16:09;;;;;;;9.82;2.63;;;;;;;24.43;35.01;101017.69;4985229;28;20270;-63
2022/10/07 09:18:38;;;;;;;6.15;2.85;;;;;;;25.68;32.52;101001.63;4992206;28;20191;-64
2022/10/07 09:21:11;;;;;;;10.15;3.70;;;;;;;25.80;32.65;101004.75;4985346;28;20297;-63
2022/10/07 09:23:37;;;;;;;12.75;2.83;;;;;;;26.46;31.22;101003.00;4987934;28;20191;-64
2022/10/07 09:26:10;;;;;;;6.28;2.70;;;;;;;27.28;29.38;100993.25;4992397;28;20191;-64
2022/10/07 09:28:35;;;;;;;5.47;2.38;;;;;;;27.94;29.09;101008.75;4991817;28;20195;-64
2022/10/07 09:31:04;;;;;;;9.10;2.78;;;;;;;28.63;28.10;101000.75;4981599;28;20233;-64
2022/10/07 09:33:30;;;;;;;6.65;2.28;;;;;;;29.05;26.85;100997.66;4984184;28;20234;-64
2022/10/07 09:36:07;;;;;;;7.45;2.92;;;;;;;28.58;25.90;101003.13;4990777;28;20183;-64
2022/10/07 09:38:36;;;;;;;4.93;2.05;;;;;;;28.26;26.55;100997.13;4991763;28;20281;-69
2022/10/07 09:41:15;;;;;;;10.75;3.13;;;;;;;28.59;26.28;100994.19;4989572;28;20254;-65
2022/10/07 09:43:53;;;;;;;5.13;2.47;;;;;;;25.51;30.26;100996.28;4991256;28;20202;-64
2022/10/07 09:46:30;;;;;;;8.35;3.00;;;;;;;26.32;29.81;100993.13;4998095;28;20277;-64
2022/10/07 09:48:57;;;;;;;7.03;2.17;;;;;;;26.77;29.36;100985.66;4995277;28;20235;-63
2022/10/07 09:51:26;;;;;;;9.75;2.78;;;;;;;27.15;28.83;100984.06;4966796;28;20322;-64
2022/10/07 09:54:02;;;;;;;8.50;2.65;;;;;;;22.52;34.83;100977.03;4992439;28;20605;-65
2022/10/07 09:56:43;;;;;;;32.53;4.88;;;;;;;24.74;33.90;100981.25;4992200;28;20199;-63
2022/10/07 09:59:21;;;;;;;12.23;3.17;;;;;;;25.35;33.60;100975.94;4991509;28;20199;-64
2022/10/07 10:01:52;;;;;;;29.90;3.88;;;;;;;27.74;30.70;100981.97;4980415;28;20243;-64
2022/10/07 10:04:19;;;;;;;9.68;2.95;;;;;;;28.92;28.28;100983.25;4983301;28;20561;-65
2022/10/07 10:06:50;;;;;;;15.15;3.60;;;;;;;28.64;28.42;100985.66;4990366;28;20531;-65
2022/10/07 10:09:22;;;;;;;6.93;2.50;;;;;;;28.00;29.00;100978.97;4990793;28;20298;-64
2022/10/07 10:12:12;;;;;;;7.95;2.35;;;;;;;25.12;32.19;100968.63;4995500;28;20230;-66
2022/10/07 10:14:52;;;;;;;8.35;3.13;;;;;;;23.79;35.80;100973.06;4990329;28;20580;-63
2022/10/07 10:17:35;;;;;;;7.78;2.65;;;;;;;22.14;37.73;100969.03;4988955;28;20217;-64
2022/10/07 10:20:28;;;;;;;10.70;5.07;;;;;;;20.43;42.81;100967.00;4992178;28;20643;-63
2022/10/07 10:22:55;;;;;;;14.90;4.82;;;;;;;20.21;47.38;100959.28;4956944;28;20408;-63
2022/10/07 10:28:41;;;;;;;9.60;2.60;;;;;;;17.17;58.38;100945.34;4991195;28;20257;-62
2022/10/07 10:31:34;;;;;;;8.20;2.60;;;;;;;17.15;63.29;100936.00;4964200;28;20238;-64
2022/10/07 10:34:16;;;;;;;8.33;2.50;;;;;;;16.69;60.99;100927.75;4994879;28;20192;-63
2022/10/07 10:36:47;;;;;;;6.47;2.33;;;;;;;16.26;64.22;100930.59;4990367;28;20231;-65
2022/10/07 10:39:31;;;;;;;5.17;2.20;;;;;;;16.25;63.19;100919.41;4992350;28;20250;-63
2022/10/07 10:42:03;;;;;;;6.80;2.27;;;;;;;16.32;62.76;100917.22;4983312;28;20736;-65
2022/10/07 10:44:41;;;;;;;5.67;1.87;;;;;;;16.17;63.36;100911.28;4989783;28;20186;-68
2022/10/07 10:47:23;;;;;;;9.00;2.90;;;;;;;16.36;63.10;100899.69;4992242;28;20190;-63
2022/10/07 10:50:11;;;;;;;7.77;2.30;;;;;;;16.24;65.08;100894.38;4990376;28;20240;-64
2022/10/07 10:52:59;;;;;;;47.10;6.50;;;;;;;16.35;65.17;100892.81;4963028;28;20282;-65
2022/10/07 10:56:02;;;;;;;8.07;2.00;;;;;;;16.51;69.46;100893.47;4989438;28;20224;-63
2022/10/07 10:58:30;;;;;;;7.27;2.10;;;;;;;16.64;71.82;100893.47;4980559;28;20237;-64
2022/10/07 11:01:19;;;;;;;11.50;2.57;;;;;;;16.62;72.06;100891.00;4975573;28;20222;-63
2022/10/07 11:03:57;;;;;;;8.37;2.10;;;;;;;16.62;72.15;100880.59;5001941;28;20215;-63
2022/10/07 11:06:27;;;;;;;11.70;2.40;;;;;;;16.56;71.85;100881.03;4994393;28;20187;-64
2022/10/07 11:08:53;;;;;;;5.00;1.70;;;;;;;16.44;71.28;100871.47;4995595;28;20183;-64
2022/10/07 11:11:21;;;;;;;11.93;2.43;;;;;;;16.44;72.45;100867.06;4987269;28;20245;-62
2022/10/07 11:14:10;;;;;;;8.50;2.17;;;;;;;16.32;72.98;100872.28;4994361;28;20178;-65
2022/10/07 11:16:51;;;;;;;12.00;2.50;;;;;;;16.26;75.04;100852.72;4987978;28;20292;-63
2022/10/07 11:19:25;;;;;;;9.23;2.10;;;;;;;16.39;73.17;100852.75;4988457;28;20202;-64
2022/10/07 11:21:53;;;;;;;9.13;2.17;;;;;;;16.48;70.37;100852.13;5003675;28;20250;-62
2022/10/07 11:24:25;;;;;;;5.20;1.97;;;;;;;16.55;71.68;100847.38;4993824;28;20188;-62
2022/10/07 11:26:55;;;;;;;9.80;2.60;;;;;;;16.83;72.38;100842.88;4995064;28;20206;-63
2022/10/07 11:29:53;;;;;;;6.53;1.97;;;;;;;16.90;70.07;100841.50;4987421;28;20650;-62
2022/10/07 11:32:34;;;;;;;5.90;2.13;;;;;;;17.13;69.06;100831.28;4958617;28;20294;-62
2022/10/07 11:35:18;;;;;;;10.53;3.13;;;;;;;17.37;67.84;100828.72;4992983;28;20580;-62
2022/10/07 11:37:55;;;;;;;8.00;2.57;;;;;;;16.70;68.15;100822.94;4994978;28;20286;-62
2022/10/07 11:40:23;;;;;;;5.13;1.90;;;;;;;16.61;69.71;100824.41;4984184;28;20187;-61
2022/10/07 11:42:51;;;;;;;9.60;2.50;;;;;;;16.59;71.18;100821.06;4992866;28;20201;-62
2022/10/07 11:45:27;;;;;;;10.57;3.10;;;;;;;16.57;73.07;100815.16;4993293;28;20195;-62
2022/10/07 11:47:59;;;;;;;29.17;4.80;;;;;;;16.03;74.81;100813.56;4993745;28;20639;-62